sensor_id;sensor_type;location;lat;lon;timestamp;P1;durP1;ratioP1;P2;durP2;ratioP2
59127;SDS011;44912;52.754;5.994;2023-07-24T00:00:27;13.55;;;10.65;;
59127;SDS011;44912;52.754;5.994;2023-07-24T00:02:52;14.07;;;10.82;;
59127;SDS011;44912;52.754;5.994;2023-07-24T00:05:18;15.80;;;11.32;;
59127;SDS011;44912;52.754;5.994;2023-07-24T00:07:44;15.65;;;11.38;;
59127;SDS011;44912;52.754;5.994;2023-07-24T00:10:10;14.13;;;11.48;;
59127;SDS011;44912;52.754;5.994;2023-07-24T00:12:35;14.60;;;12.07;;
59127;SDS011;44912;52.754;5.994;2023-07-24T00:15:01;16.27;;;12.75;;
59127;SDS011;44912;52.754;5.994;2023-07-24T00:17:26;14.77;;;12.07;;
59127;SDS011;44912;52.754;5.994;2023-07-24T00:19:52;15.02;;;11.80;;
59127;SDS011;44912;52.754;5.994;2023-07-24T00:22:17;15.70;;;11.82;;
59127;SDS011;44912;52.754;5.994;2023-07-24T00:24:43;14.38;;;12.32;;
59127;SDS011;44912;52.754;5.994;2023-07-24T00:27:08;15.30;;;12.07;;
59127;SDS011;44912;52.754;5.994;2023-07-24T00:29:34;13.70;;;11.00;;
59127;SDS011;44912;52.754;5.994;2023-07-24T00:31:59;14.77;;;11.13;;
59127;SDS011;44912;52.754;5.994;2023-07-24T00:34:25;14.93;;;11.27;;
59127;SDS011;44912;52.754;5.994;2023-07-24T00:36:50;15.25;;;11.70;;
59127;SDS011;44912;52.754;5.994;2023-07-24T00:39:16;12.98;;;10.13;;
59127;SDS011;44912;52.754;5.994;2023-07-24T00:41:42;13.88;;;10.05;;
59127;SDS011;44912;52.754;5.994;2023-07-24T00:44:08;12.95;;;9.98;;
59127;SDS011;44912;52.754;5.994;2023-07-24T00:46:34;11.73;;;9.57;;
59127;SDS011;44912;52.754;5.994;2023-07-24T00:49:00;12.55;;;9.38;;
59127;SDS011;44912;52.754;5.994;2023-07-24T00:51:27;12.57;;;8.30;;
59127;SDS011;44912;52.754;5.994;2023-07-24T00:53:56;12.27;;;8.75;;
59127;SDS011;44912;52.754;5.994;2023-07-24T00:56:24;13.38;;;8.63;;
59127;SDS011;44912;52.754;5.994;2023-07-24T00:58:51;12.20;;;8.32;;
59127;SDS011;44912;52.754;5.994;2023-07-24T01:01:17;12.52;;;8.02;;
59127;SDS011;44912;52.754;5.994;2023-07-24T01:03:43;11.45;;;7.85;;
59127;SDS011;44912;52.754;5.994;2023-07-24T01:06:09;12.15;;;8.07;;
59127;SDS011;44912;52.754;5.994;2023-07-24T01:08:35;10.98;;;7.55;;
59127;SDS011;44912;52.754;5.994;2023-07-24T01:11:10;12.45;;;8.00;;
59127;SDS011;44912;52.754;5.994;2023-07-24T01:13:44;12.77;;;8.00;;
59127;SDS011;44912;52.754;5.994;2023-07-24T01:16:24;12.30;;;7.70;;
59127;SDS011;44912;52.754;5.994;2023-07-24T01:18:55;10.88;;;7.88;;
59127;SDS011;44912;52.754;5.994;2023-07-24T01:21:36;12.23;;;8.07;;
59127;SDS011;44912;52.754;5.994;2023-07-24T01:24:29;10.05;;;7.75;;
59127;SDS011;44912;52.754;5.994;2023-07-24T01:27:01;11.90;;;8.07;;
59127;SDS011;44912;52.754;5.994;2023-07-24T01:29:27;11.48;;;8.13;;
59127;SDS011;44912;52.754;5.994;2023-07-24T01:31:53;11.38;;;7.38;;
59127;SDS011;44912;52.754;5.994;2023-07-24T01:34:18;12.20;;;7.85;;
59127;SDS011;44912;52.754;5.994;2023-07-24T01:36:44;13.48;;;8.25;;
59127;SDS011;44912;52.754;5.994;2023-07-24T01:39:10;11.10;;;8.07;;
59127;SDS011;44912;52.754;5.994;2023-07-24T01:41:36;12.82;;;8.55;;
59127;SDS011;44912;52.754;5.994;2023-07-24T01:44:02;11.73;;;7.95;;
59127;SDS011;44912;52.754;5.994;2023-07-24T01:46:27;13.18;;;8.20;;
59127;SDS011;44912;52.754;5.994;2023-07-24T01:48:53;13.07;;;8.20;;
59127;SDS011;44912;52.754;5.994;2023-07-24T01:51:18;10.80;;;7.50;;
59127;SDS011;44912;52.754;5.994;2023-07-24T01:53:44;10.98;;;7.88;;
59127;SDS011;44912;52.754;5.994;2023-07-24T01:56:09;10.45;;;7.70;;
59127;SDS011;44912;52.754;5.994;2023-07-24T01:58:35;11.68;;;8.23;;
59127;SDS011;44912;52.754;5.994;2023-07-24T02:01:00;11.82;;;7.90;;
59127;SDS011;44912;52.754;5.994;2023-07-24T02:03:26;11.35;;;8.23;;
59127;SDS011;44912;52.754;5.994;2023-07-24T02:05:51;12.48;;;8.18;;
59127;SDS011;44912;52.754;5.994;2023-07-24T02:08:17;12.88;;;8.45;;
59127;SDS011;44912;52.754;5.994;2023-07-24T02:10:43;11.88;;;8.65;;
59127;SDS011;44912;52.754;5.994;2023-07-24T02:13:08;13.65;;;8.70;;
59127;SDS011;44912;52.754;5.994;2023-07-24T02:15:34;13.82;;;8.77;;
59127;SDS011;44912;52.754;5.994;2023-07-24T02:18:01;12.18;;;8.85;;
59127;SDS011;44912;52.754;5.994;2023-07-24T02:20:26;11.93;;;8.13;;
59127;SDS011;44912;52.754;5.994;2023-07-24T02:22:52;12.10;;;9.00;;
59127;SDS011;44912;52.754;5.994;2023-07-24T02:25:17;13.52;;;8.85;;
59127;SDS011;44912;52.754;5.994;2023-07-24T02:27:43;12.65;;;9.32;;
59127;SDS011;44912;52.754;5.994;2023-07-24T02:30:08;12.15;;;9.27;;
59127;SDS011;44912;52.754;5.994;2023-07-24T02:32:34;12.82;;;9.88;;
59127;SDS011;44912;52.754;5.994;2023-07-24T02:35:00;13.30;;;9.90;;
59127;SDS011;44912;52.754;5.994;2023-07-24T02:37:25;13.77;;;10.00;;
59127;SDS011;44912;52.754;5.994;2023-07-24T02:39:51;12.82;;;9.55;;
59127;SDS011;44912;52.754;5.994;2023-07-24T02:42:18;13.43;;;10.18;;
59127;SDS011;44912;52.754;5.994;2023-07-24T02:44:43;13.00;;;10.38;;
59127;SDS011;44912;52.754;5.994;2023-07-24T02:47:09;11.63;;;9.38;;
59127;SDS011;44912;52.754;5.994;2023-07-24T02:49:34;13.50;;;9.88;;
59127;SDS011;44912;52.754;5.994;2023-07-24T02:52:00;12.07;;;9.43;;
59127;SDS011;44912;52.754;5.994;2023-07-24T02:54:26;14.15;;;9.80;;
59127;SDS011;44912;52.754;5.994;2023-07-24T02:56:52;13.20;;;9.63;;
59127;SDS011;44912;52.754;5.994;2023-07-24T02:59:17;14.73;;;10.35;;
59127;SDS011;44912;52.754;5.994;2023-07-24T03:01:43;13.43;;;10.27;;
59127;SDS011;44912;52.754;5.994;2023-07-24T03:04:08;13.95;;;9.93;;
59127;SDS011;44912;52.754;5.994;2023-07-24T03:06:34;12.32;;;9.75;;
59127;SDS011;44912;52.754;5.994;2023-07-24T03:09:00;13.13;;;10.18;;
59127;SDS011;44912;52.754;5.994;2023-07-24T03:11:26;12.52;;;9.35;;
59127;SDS011;44912;52.754;5.994;2023-07-24T03:13:51;13.85;;;10.13;;
59127;SDS011;44912;52.754;5.994;2023-07-24T03:16:17;13.30;;;9.82;;
59127;SDS011;44912;52.754;5.994;2023-07-24T03:18:44;12.63;;;9.45;;
59127;SDS011;44912;52.754;5.994;2023-07-24T03:21:10;12.38;;;9.00;;
59127;SDS011;44912;52.754;5.994;2023-07-24T03:23:35;12.60;;;9.65;;
59127;SDS011;44912;52.754;5.994;2023-07-24T03:26:01;13.00;;;9.13;;
59127;SDS011;44912;52.754;5.994;2023-07-24T03:28:26;11.32;;;8.70;;
59127;SDS011;44912;52.754;5.994;2023-07-24T03:30:52;12.32;;;9.18;;
59127;SDS011;44912;52.754;5.994;2023-07-24T03:33:18;12.18;;;9.20;;
59127;SDS011;44912;52.754;5.994;2023-07-24T03:35:43;11.77;;;8.73;;
59127;SDS011;44912;52.754;5.994;2023-07-24T03:38:09;12.57;;;9.40;;
59127;SDS011;44912;52.754;5.994;2023-07-24T03:40:34;12.70;;;9.20;;
59127;SDS011;44912;52.754;5.994;2023-07-24T03:43:00;11.73;;;9.20;;
59127;SDS011;44912;52.754;5.994;2023-07-24T03:45:25;14.18;;;9.60;;
59127;SDS011;44912;52.754;5.994;2023-07-24T03:47:51;15.65;;;8.82;;
59127;SDS011;44912;52.754;5.994;2023-07-24T03:50:16;12.75;;;9.32;;
59127;SDS011;44912;52.754;5.994;2023-07-24T03:52:42;12.32;;;9.18;;
59127;SDS011;44912;52.754;5.994;2023-07-24T03:55:07;13.55;;;9.35;;
59127;SDS011;44912;52.754;5.994;2023-07-24T03:57:34;15.68;;;9.45;;
59127;SDS011;44912;52.754;5.994;2023-07-24T03:59:59;12.80;;;9.68;;
59127;SDS011;44912;52.754;5.994;2023-07-24T04:02:25;14.52;;;9.80;;
59127;SDS011;44912;52.754;5.994;2023-07-24T04:04:51;13.77;;;9.77;;
59127;SDS011;44912;52.754;5.994;2023-07-24T04:07:16;12.90;;;9.18;;
59127;SDS011;44912;52.754;5.994;2023-07-24T04:09:42;12.15;;;9.15;;
59127;SDS011;44912;52.754;5.994;2023-07-24T04:12:07;12.95;;;9.38;;
59127;SDS011;44912;52.754;5.994;2023-07-24T04:14:33;12.85;;;9.18;;
59127;SDS011;44912;52.754;5.994;2023-07-24T04:16:58;13.90;;;10.45;;
59127;SDS011;44912;52.754;5.994;2023-07-24T04:19:24;13.93;;;9.93;;
59127;SDS011;44912;52.754;5.994;2023-07-24T04:21:50;13.65;;;9.15;;
59127;SDS011;44912;52.754;5.994;2023-07-24T04:24:15;14.32;;;10.20;;
59127;SDS011;44912;52.754;5.994;2023-07-24T04:26:41;14.23;;;10.27;;
59127;SDS011;44912;52.754;5.994;2023-07-24T04:29:07;12.60;;;9.23;;
59127;SDS011;44912;52.754;5.994;2023-07-24T04:31:33;13.48;;;10.23;;
59127;SDS011;44912;52.754;5.994;2023-07-24T04:33:58;12.35;;;10.38;;
59127;SDS011;44912;52.754;5.994;2023-07-24T04:36:24;13.80;;;10.32;;
59127;SDS011;44912;52.754;5.994;2023-07-24T04:38:49;13.27;;;9.52;;
59127;SDS011;44912;52.754;5.994;2023-07-24T04:41:15;11.88;;;9.00;;
59127;SDS011;44912;52.754;5.994;2023-07-24T04:43:41;14.73;;;9.93;;
59127;SDS011;44912;52.754;5.994;2023-07-24T04:46:06;14.60;;;9.75;;
59127;SDS011;44912;52.754;5.994;2023-07-24T04:48:32;15.90;;;10.48;;
59127;SDS011;44912;52.754;5.994;2023-07-24T04:50:57;13.68;;;10.13;;
59127;SDS011;44912;52.754;5.994;2023-07-24T04:53:23;13.70;;;10.05;;
59127;SDS011;44912;52.754;5.994;2023-07-24T04:55:48;13.52;;;10.40;;
59127;SDS011;44912;52.754;5.994;2023-07-24T04:58:14;14.77;;;9.55;;
59127;SDS011;44912;52.754;5.994;2023-07-24T05:00:39;13.13;;;9.43;;
59127;SDS011;44912;52.754;5.994;2023-07-24T05:03:05;13.32;;;9.60;;
59127;SDS011;44912;52.754;5.994;2023-07-24T05:05:33;14.35;;;9.75;;
59127;SDS011;44912;52.754;5.994;2023-07-24T05:07:58;13.88;;;9.70;;
59127;SDS011;44912;52.754;5.994;2023-07-24T05:10:24;15.55;;;9.82;;
59127;SDS011;44912;52.754;5.994;2023-07-24T05:12:49;13.88;;;9.55;;
59127;SDS011;44912;52.754;5.994;2023-07-24T05:15:15;14.07;;;9.30;;
59127;SDS011;44912;52.754;5.994;2023-07-24T05:17:42;13.32;;;9.70;;
59127;SDS011;44912;52.754;5.994;2023-07-24T05:20:08;13.85;;;9.32;;
59127;SDS011;44912;52.754;5.994;2023-07-24T05:22:34;14.68;;;9.75;;
59127;SDS011;44912;52.754;5.994;2023-07-24T05:25:00;13.60;;;8.93;;
59127;SDS011;44912;52.754;5.994;2023-07-24T05:27:25;13.35;;;9.45;;
59127;SDS011;44912;52.754;5.994;2023-07-24T05:29:51;12.82;;;8.88;;
59127;SDS011;44912;52.754;5.994;2023-07-24T05:32:17;12.02;;;8.52;;
59127;SDS011;44912;52.754;5.994;2023-07-24T05:34:42;13.32;;;9.10;;
59127;SDS011;44912;52.754;5.994;2023-07-24T05:37:08;13.27;;;9.35;;
59127;SDS011;44912;52.754;5.994;2023-07-24T05:39:33;13.93;;;8.73;;
59127;SDS011;44912;52.754;5.994;2023-07-24T05:41:59;13.18;;;9.30;;
59127;SDS011;44912;52.754;5.994;2023-07-24T05:44:24;13.18;;;9.15;;
59127;SDS011;44912;52.754;5.994;2023-07-24T05:46:50;15.48;;;9.07;;
59127;SDS011;44912;52.754;5.994;2023-07-24T05:49:15;14.77;;;8.90;;
59127;SDS011;44912;52.754;5.994;2023-07-24T05:51:41;14.80;;;9.20;;
59127;SDS011;44912;52.754;5.994;2023-07-24T05:54:07;14.52;;;9.40;;
59127;SDS011;44912;52.754;5.994;2023-07-24T05:56:32;14.70;;;8.98;;
59127;SDS011;44912;52.754;5.994;2023-07-24T05:58:58;13.73;;;8.20;;
59127;SDS011;44912;52.754;5.994;2023-07-24T06:01:23;13.88;;;9.00;;
59127;SDS011;44912;52.754;5.994;2023-07-24T06:03:49;14.77;;;8.50;;
59127;SDS011;44912;52.754;5.994;2023-07-24T06:06:14;12.70;;;8.10;;
59127;SDS011;44912;52.754;5.994;2023-07-24T06:08:40;13.60;;;8.07;;
59127;SDS011;44912;52.754;5.994;2023-07-24T06:11:05;13.95;;;8.38;;
59127;SDS011;44912;52.754;5.994;2023-07-24T06:13:31;14.35;;;7.82;;
59127;SDS011;44912;52.754;5.994;2023-07-24T06:15:56;12.43;;;8.00;;
59127;SDS011;44912;52.754;5.994;2023-07-24T06:18:22;14.00;;;8.63;;
59127;SDS011;44912;52.754;5.994;2023-07-24T06:20:47;14.15;;;7.97;;
59127;SDS011;44912;52.754;5.994;2023-07-24T06:23:17;13.20;;;7.38;;
59127;SDS011;44912;52.754;5.994;2023-07-24T06:25:43;14.35;;;8.43;;
59127;SDS011;44912;52.754;5.994;2023-07-24T06:28:08;13.32;;;8.30;;
59127;SDS011;44912;52.754;5.994;2023-07-24T06:30:34;12.73;;;7.95;;
59127;SDS011;44912;52.754;5.994;2023-07-24T06:32:59;12.93;;;7.38;;
59127;SDS011;44912;52.754;5.994;2023-07-24T06:35:25;13.07;;;7.35;;
59127;SDS011;44912;52.754;5.994;2023-07-24T06:37:50;14.93;;;7.30;;
59127;SDS011;44912;52.754;5.994;2023-07-24T06:40:16;13.90;;;7.65;;
59127;SDS011;44912;52.754;5.994;2023-07-24T06:42:42;12.77;;;6.97;;
59127;SDS011;44912;52.754;5.994;2023-07-24T06:45:07;12.95;;;6.47;;
59127;SDS011;44912;52.754;5.994;2023-07-24T06:47:33;12.85;;;7.00;;
59127;SDS011;44912;52.754;5.994;2023-07-24T06:49:59;14.82;;;7.55;;
59127;SDS011;44912;52.754;5.994;2023-07-24T06:52:24;13.52;;;7.28;;
59127;SDS011;44912;52.754;5.994;2023-07-24T06:54:49;13.23;;;7.38;;
59127;SDS011;44912;52.754;5.994;2023-07-24T06:57:15;15.38;;;7.05;;
59127;SDS011;44912;52.754;5.994;2023-07-24T06:59:40;13.05;;;6.60;;
59127;SDS011;44912;52.754;5.994;2023-07-24T07:02:06;12.32;;;7.10;;
59127;SDS011;44912;52.754;5.994;2023-07-24T07:04:32;12.77;;;7.07;;
59127;SDS011;44912;52.754;5.994;2023-07-24T07:06:57;13.00;;;6.43;;
59127;SDS011;44912;52.754;5.994;2023-07-24T07:09:23;14.35;;;7.10;;
59127;SDS011;44912;52.754;5.994;2023-07-24T07:11:48;14.65;;;6.95;;
59127;SDS011;44912;52.754;5.994;2023-07-24T07:14:14;14.45;;;6.68;;
59127;SDS011;44912;52.754;5.994;2023-07-24T07:16:39;13.55;;;6.50;;
59127;SDS011;44912;52.754;5.994;2023-07-24T07:19:05;15.48;;;7.20;;
59127;SDS011;44912;52.754;5.994;2023-07-24T07:21:31;16.10;;;6.72;;
59127;SDS011;44912;52.754;5.994;2023-07-24T07:23:57;16.75;;;7.45;;
59127;SDS011;44912;52.754;5.994;2023-07-24T07:26:22;18.80;;;7.13;;
59127;SDS011;44912;52.754;5.994;2023-07-24T07:28:48;13.25;;;6.18;;
59127;SDS011;44912;52.754;5.994;2023-07-24T07:31:13;15.68;;;6.88;;
59127;SDS011;44912;52.754;5.994;2023-07-24T07:33:39;15.68;;;7.70;;
59127;SDS011;44912;52.754;5.994;2023-07-24T07:36:05;15.65;;;6.72;;
59127;SDS011;44912;52.754;5.994;2023-07-24T07:38:31;12.45;;;6.85;;
59127;SDS011;44912;52.754;5.994;2023-07-24T07:40:57;12.82;;;7.15;;
59127;SDS011;44912;52.754;5.994;2023-07-24T07:43:22;13.35;;;6.75;;
59127;SDS011;44912;52.754;5.994;2023-07-24T07:45:48;17.27;;;7.70;;
59127;SDS011;44912;52.754;5.994;2023-07-24T07:48:13;14.73;;;7.05;;
59127;SDS011;44912;52.754;5.994;2023-07-24T07:50:39;15.07;;;6.70;;
59127;SDS011;44912;52.754;5.994;2023-07-24T07:53:04;14.55;;;7.55;;
59127;SDS011;44912;52.754;5.994;2023-07-24T07:55:30;13.30;;;7.50;;
59127;SDS011;44912;52.754;5.994;2023-07-24T07:57:55;17.40;;;8.07;;
59127;SDS011;44912;52.754;5.994;2023-07-24T08:00:21;15.00;;;7.35;;
59127;SDS011;44912;52.754;5.994;2023-07-24T08:02:47;13.40;;;6.97;;
59127;SDS011;44912;52.754;5.994;2023-07-24T08:05:13;17.00;;;7.10;;
59127;SDS011;44912;52.754;5.994;2023-07-24T08:07:38;14.45;;;7.10;;
59127;SDS011;44912;52.754;5.994;2023-07-24T08:10:04;15.05;;;7.57;;
59127;SDS011;44912;52.754;5.994;2023-07-24T08:12:30;14.88;;;7.03;;
59127;SDS011;44912;52.754;5.994;2023-07-24T08:14:55;13.55;;;7.40;;
59127;SDS011;44912;52.754;5.994;2023-07-24T08:17:21;13.95;;;7.45;;
59127;SDS011;44912;52.754;5.994;2023-07-24T08:19:47;16.38;;;7.80;;
59127;SDS011;44912;52.754;5.994;2023-07-24T08:22:12;13.77;;;7.50;;
59127;SDS011;44912;52.754;5.994;2023-07-24T08:24:38;17.38;;;7.25;;
59127;SDS011;44912;52.754;5.994;2023-07-24T08:27:03;14.02;;;7.53;;
59127;SDS011;44912;52.754;5.994;2023-07-24T08:29:29;14.93;;;7.63;;
59127;SDS011;44912;52.754;5.994;2023-07-24T08:31:54;12.20;;;6.93;;
59127;SDS011;44912;52.754;5.994;2023-07-24T08:34:20;13.82;;;7.22;;
59127;SDS011;44912;52.754;5.994;2023-07-24T08:36:46;13.52;;;6.55;;
59127;SDS011;44912;52.754;5.994;2023-07-24T08:39:11;14.50;;;6.78;;
59127;SDS011;44912;52.754;5.994;2023-07-24T08:41:37;14.35;;;6.90;;
59127;SDS011;44912;52.754;5.994;2023-07-24T08:44:03;14.40;;;7.60;;
59127;SDS011;44912;52.754;5.994;2023-07-24T08:46:34;18.42;;;7.78;;
59127;SDS011;44912;52.754;5.994;2023-07-24T08:49:01;15.77;;;7.35;;
59127;SDS011;44912;52.754;5.994;2023-07-24T08:51:28;14.50;;;6.53;;
59127;SDS011;44912;52.754;5.994;2023-07-24T08:53:55;11.90;;;6.32;;
59127;SDS011;44912;52.754;5.994;2023-07-24T08:56:21;15.15;;;6.45;;
59127;SDS011;44912;52.754;5.994;2023-07-24T08:58:47;13.48;;;5.93;;
59127;SDS011;44912;52.754;5.994;2023-07-24T09:01:12;15.55;;;5.85;;
59127;SDS011;44912;52.754;5.994;2023-07-24T09:03:38;12.27;;;6.15;;
59127;SDS011;44912;52.754;5.994;2023-07-24T09:06:04;13.70;;;6.68;;
59127;SDS011;44912;52.754;5.994;2023-07-24T09:08:33;15.95;;;7.00;;
59127;SDS011;44912;52.754;5.994;2023-07-24T09:11:04;13.20;;;7.22;;
59127;SDS011;44912;52.754;5.994;2023-07-24T09:13:30;12.00;;;6.00;;
59127;SDS011;44912;52.754;5.994;2023-07-24T09:15:57;13.95;;;5.80;;
59127;SDS011;44912;52.754;5.994;2023-07-24T09:18:24;14.95;;;6.45;;
59127;SDS011;44912;52.754;5.994;2023-07-24T09:20:49;12.23;;;6.22;;
59127;SDS011;44912;52.754;5.994;2023-07-24T09:23:15;12.25;;;5.53;;
59127;SDS011;44912;52.754;5.994;2023-07-24T09:25:50;11.82;;;5.65;;
59127;SDS011;44912;52.754;5.994;2023-07-24T09:28:16;14.23;;;5.80;;
59127;SDS011;44912;52.754;5.994;2023-07-24T09:30:42;12.10;;;5.60;;
59127;SDS011;44912;52.754;5.994;2023-07-24T09:33:20;14.25;;;6.32;;
59127;SDS011;44912;52.754;5.994;2023-07-24T09:36:00;13.73;;;5.25;;
59127;SDS011;44912;52.754;5.994;2023-07-24T09:38:26;10.85;;;5.13;;
59127;SDS011;44912;52.754;5.994;2023-07-24T09:40:52;12.43;;;5.47;;
59127;SDS011;44912;52.754;5.994;2023-07-24T09:45:48;11.50;;;6.60;;
59127;SDS011;44912;52.754;5.994;2023-07-24T09:48:15;12.68;;;5.30;;
59127;SDS011;44912;52.754;5.994;2023-07-24T09:50:42;11.98;;;6.03;;
59127;SDS011;44912;52.754;5.994;2023-07-24T09:53:12;12.50;;;5.60;;
59127;SDS011;44912;52.754;5.994;2023-07-24T09:55:59;16.42;;;6.05;;
59127;SDS011;44912;52.754;5.994;2023-07-24T09:58:27;12.90;;;5.63;;
59127;SDS011;44912;52.754;5.994;2023-07-24T10:00:54;15.43;;;6.05;;
59127;SDS011;44912;52.754;5.994;2023-07-24T10:03:21;13.30;;;6.40;;
59127;SDS011;44912;52.754;5.994;2023-07-24T10:05:47;12.02;;;6.00;;
59127;SDS011;44912;52.754;5.994;2023-07-24T10:08:15;14.57;;;6.65;;
59127;SDS011;44912;52.754;5.994;2023-07-24T10:10:42;14.63;;;6.85;;
59127;SDS011;44912;52.754;5.994;2023-07-24T10:13:08;14.55;;;6.32;;
59127;SDS011;44912;52.754;5.994;2023-07-24T10:15:36;13.00;;;6.38;;
59127;SDS011;44912;52.754;5.994;2023-07-24T10:18:03;12.55;;;5.85;;
59127;SDS011;44912;52.754;5.994;2023-07-24T10:20:37;10.75;;;5.93;;
59127;SDS011;44912;52.754;5.994;2023-07-24T10:23:09;11.05;;;5.65;;
59127;SDS011;44912;52.754;5.994;2023-07-24T10:25:38;10.93;;;5.88;;
59127;SDS011;44912;52.754;5.994;2023-07-24T10:28:09;11.73;;;5.47;;
59127;SDS011;44912;52.754;5.994;2023-07-24T10:30:39;11.15;;;5.20;;
59127;SDS011;44912;52.754;5.994;2023-07-24T10:35:36;13.30;;;5.63;;
59127;SDS011;44912;52.754;5.994;2023-07-24T10:38:09;11.35;;;5.28;;
59127;SDS011;44912;52.754;5.994;2023-07-24T10:40:35;12.25;;;5.63;;
59127;SDS011;44912;52.754;5.994;2023-07-24T10:45:46;8.52;;;4.38;;
59127;SDS011;44912;52.754;5.994;2023-07-24T10:48:13;9.82;;;5.00;;
59127;SDS011;44912;52.754;5.994;2023-07-24T10:50:40;12.02;;;5.20;;
59127;SDS011;44912;52.754;5.994;2023-07-24T10:53:11;11.63;;;4.60;;
59127;SDS011;44912;52.754;5.994;2023-07-24T10:55:38;10.45;;;4.90;;
59127;SDS011;44912;52.754;5.994;2023-07-24T10:58:03;9.13;;;4.63;;
59127;SDS011;44912;52.754;5.994;2023-07-24T11:00:30;12.43;;;5.28;;
59127;SDS011;44912;52.754;5.994;2023-07-24T11:02:56;10.55;;;4.93;;
59127;SDS011;44912;52.754;5.994;2023-07-24T11:05:22;10.65;;;4.85;;
59127;SDS011;44912;52.754;5.994;2023-07-24T11:07:48;10.13;;;4.53;;
59127;SDS011;44912;52.754;5.994;2023-07-24T11:10:15;11.75;;;5.38;;
59127;SDS011;44912;52.754;5.994;2023-07-24T11:12:44;9.80;;;4.80;;
59127;SDS011;44912;52.754;5.994;2023-07-24T11:15:10;10.45;;;4.90;;
59127;SDS011;44912;52.754;5.994;2023-07-24T11:17:37;11.52;;;4.97;;
59127;SDS011;44912;52.754;5.994;2023-07-24T11:22:32;12.45;;;5.07;;
59127;SDS011;44912;52.754;5.994;2023-07-24T11:24:58;10.95;;;4.53;;
59127;SDS011;44912;52.754;5.994;2023-07-24T11:27:24;10.88;;;5.13;;
59127;SDS011;44912;52.754;5.994;2023-07-24T11:29:50;9.82;;;4.75;;
59127;SDS011;44912;52.754;5.994;2023-07-24T11:32:19;10.70;;;4.82;;
59127;SDS011;44912;52.754;5.994;2023-07-24T11:34:46;11.00;;;4.60;;
59127;SDS011;44912;52.754;5.994;2023-07-24T11:37:13;10.00;;;4.50;;
59127;SDS011;44912;52.754;5.994;2023-07-24T11:39:39;8.70;;;4.13;;
59127;SDS011;44912;52.754;5.994;2023-07-24T11:42:05;10.77;;;4.85;;
59127;SDS011;44912;52.754;5.994;2023-07-24T11:44:31;9.68;;;4.90;;
59127;SDS011;44912;52.754;5.994;2023-07-24T11:47:03;8.30;;;4.53;;
59127;SDS011;44912;52.754;5.994;2023-07-24T11:49:30;9.77;;;4.43;;
59127;SDS011;44912;52.754;5.994;2023-07-24T11:52:00;8.45;;;4.60;;
59127;SDS011;44912;52.754;5.994;2023-07-24T11:54:28;10.20;;;4.85;;
59127;SDS011;44912;52.754;5.994;2023-07-24T11:56:54;10.48;;;5.03;;
59127;SDS011;44912;52.754;5.994;2023-07-24T11:59:19;7.88;;;4.53;;
59127;SDS011;44912;52.754;5.994;2023-07-24T12:01:46;8.73;;;4.75;;
59127;SDS011;44912;52.754;5.994;2023-07-24T12:04:15;10.32;;;4.53;;
59127;SDS011;44912;52.754;5.994;2023-07-24T12:06:41;9.30;;;4.68;;
59127;SDS011;44912;52.754;5.994;2023-07-24T12:09:07;10.02;;;4.68;;
59127;SDS011;44912;52.754;5.994;2023-07-24T12:11:42;9.32;;;4.43;;
59127;SDS011;44912;52.754;5.994;2023-07-24T12:14:09;12.40;;;5.15;;
59127;SDS011;44912;52.754;5.994;2023-07-24T12:16:35;9.32;;;4.32;;
59127;SDS011;44912;52.754;5.994;2023-07-24T12:19:01;8.27;;;4.10;;
59127;SDS011;44912;52.754;5.994;2023-07-24T12:21:27;8.10;;;4.25;;
59127;SDS011;44912;52.754;5.994;2023-07-24T12:23:52;7.47;;;4.90;;
59127;SDS011;44912;52.754;5.994;2023-07-24T12:26:18;7.38;;;4.45;;
59127;SDS011;44912;52.754;5.994;2023-07-24T12:28:43;7.70;;;4.72;;
59127;SDS011;44912;52.754;5.994;2023-07-24T12:31:09;9.43;;;5.50;;
59127;SDS011;44912;52.754;5.994;2023-07-24T12:33:34;8.57;;;5.22;;
59127;SDS011;44912;52.754;5.994;2023-07-24T12:36:00;11.00;;;5.07;;
59127;SDS011;44912;52.754;5.994;2023-07-24T12:38:26;9.77;;;5.30;;
59127;SDS011;44912;52.754;5.994;2023-07-24T12:40:52;9.65;;;5.22;;
59127;SDS011;44912;52.754;5.994;2023-07-24T12:43:18;10.07;;;5.50;;
59127;SDS011;44912;52.754;5.994;2023-07-24T12:45:43;11.10;;;5.40;;
59127;SDS011;44912;52.754;5.994;2023-07-24T12:48:09;10.43;;;5.78;;
59127;SDS011;44912;52.754;5.994;2023-07-24T12:50:34;11.18;;;5.93;;
59127;SDS011;44912;52.754;5.994;2023-07-24T12:53:00;8.50;;;5.30;;
59127;SDS011;44912;52.754;5.994;2023-07-24T12:55:25;8.52;;;5.55;;
59127;SDS011;44912;52.754;5.994;2023-07-24T12:57:52;9.85;;;5.88;;
59127;SDS011;44912;52.754;5.994;2023-07-24T13:00:17;10.55;;;5.97;;
59127;SDS011;44912;52.754;5.994;2023-07-24T13:02:43;9.25;;;6.43;;
59127;SDS011;44912;52.754;5.994;2023-07-24T13:05:09;11.40;;;7.00;;
59127;SDS011;44912;52.754;5.994;2023-07-24T13:07:34;10.40;;;7.32;;
59127;SDS011;44912;52.754;5.994;2023-07-24T13:10:00;7.85;;;5.68;;
59127;SDS011;44912;52.754;5.994;2023-07-24T13:12:26;8.25;;;5.28;;
59127;SDS011;44912;52.754;5.994;2023-07-24T13:14:51;8.40;;;4.53;;
59127;SDS011;44912;52.754;5.994;2023-07-24T13:17:17;6.65;;;4.32;;
59127;SDS011;44912;52.754;5.994;2023-07-24T13:19:42;9.30;;;4.53;;
59127;SDS011;44912;52.754;5.994;2023-07-24T13:22:08;7.55;;;3.97;;
59127;SDS011;44912;52.754;5.994;2023-07-24T13:24:33;7.25;;;3.63;;
59127;SDS011;44912;52.754;5.994;2023-07-24T13:26:59;7.68;;;4.50;;
59127;SDS011;44912;52.754;5.994;2023-07-24T13:29:25;6.82;;;4.13;;
59127;SDS011;44912;52.754;5.994;2023-07-24T13:31:50;5.57;;;3.03;;
59127;SDS011;44912;52.754;5.994;2023-07-24T13:34:18;6.95;;;3.00;;
59127;SDS011;44912;52.754;5.994;2023-07-24T13:36:45;6.20;;;2.90;;
59127;SDS011;44912;52.754;5.994;2023-07-24T13:39:12;5.10;;;2.20;;
59127;SDS011;44912;52.754;5.994;2023-07-24T13:41:38;4.13;;;1.90;;
59127;SDS011;44912;52.754;5.994;2023-07-24T13:44:04;6.28;;;2.35;;
59127;SDS011;44912;52.754;5.994;2023-07-24T13:46:29;5.57;;;2.20;;
59127;SDS011;44912;52.754;5.994;2023-07-24T13:48:55;5.25;;;2.22;;
59127;SDS011;44912;52.754;5.994;2023-07-24T13:51:20;5.22;;;2.22;;
59127;SDS011;44912;52.754;5.994;2023-07-24T13:53:46;8.52;;;2.00;;
59127;SDS011;44912;52.754;5.994;2023-07-24T13:56:13;6.45;;;2.28;;
59127;SDS011;44912;52.754;5.994;2023-07-24T13:58:39;4.57;;;2.15;;
59127;SDS011;44912;52.754;5.994;2023-07-24T14:01:04;7.13;;;1.90;;
59127;SDS011;44912;52.754;5.994;2023-07-24T14:03:32;6.05;;;2.30;;
59127;SDS011;44912;52.754;5.994;2023-07-24T14:05:58;5.25;;;2.00;;
59127;SDS011;44912;52.754;5.994;2023-07-24T14:08:23;6.30;;;2.45;;
59127;SDS011;44912;52.754;5.994;2023-07-24T14:10:49;6.30;;;2.55;;
59127;SDS011;44912;52.754;5.994;2023-07-24T14:13:15;3.75;;;1.83;;
59127;SDS011;44912;52.754;5.994;2023-07-24T14:15:40;6.55;;;1.98;;
59127;SDS011;44912;52.754;5.994;2023-07-24T14:18:06;4.72;;;1.95;;
59127;SDS011;44912;52.754;5.994;2023-07-24T14:20:31;6.60;;;2.00;;
59127;SDS011;44912;52.754;5.994;2023-07-24T14:22:57;5.45;;;1.63;;
59127;SDS011;44912;52.754;5.994;2023-07-24T14:25:22;4.88;;;1.88;;
59127;SDS011;44912;52.754;5.994;2023-07-24T14:27:48;5.07;;;2.00;;
59127;SDS011;44912;52.754;5.994;2023-07-24T14:30:13;5.38;;;1.85;;
59127;SDS011;44912;52.754;5.994;2023-07-24T14:32:39;5.22;;;1.90;;
59127;SDS011;44912;52.754;5.994;2023-07-24T14:35:04;4.45;;;1.58;;
59127;SDS011;44912;52.754;5.994;2023-07-24T14:37:30;5.22;;;1.58;;
59127;SDS011;44912;52.754;5.994;2023-07-24T14:39:56;6.30;;;1.60;;